Time;durP1;ratioP1;P1;durP2;ratioP2;P2;SDS_P1;SDS_P2;PMS_P1;PMS_P2;Temp;Humidity;BMP_temperature;BMP_pressure;BME280_temperature;BME280_humidity;BME280_pressure;Samples;Min_cycle;Max_cycle;Signal;HPM_P1;HPM_P2
2024/04/01 00:01:37;;;;;;;2.20;0.90;;;12.80;75.80;;;;;;5019784;28;20022;-85
2024/04/01 00:04:02;;;;;;;2.92;0.82;;;12.80;74.60;;;;;;5018335;28;20036;-84
2024/04/01 00:06:28;;;;;;;1.30;0.90;;;12.80;74.80;;;;;;5016253;28;20083;-84
2024/04/01 00:08:53;;;;;;;0.85;0.80;;;12.80;74.30;;;;;;5018377;28;20029;-85
2024/04/01 00:11:19;;;;;;;1.48;0.95;;;12.90;76.40;;;;;;5018210;28;20026;-83
2024/04/01 00:13:44;;;;;;;2.67;1.25;;;12.80;76.90;;;;;;5018725;28;20021;-84
2024/04/01 00:16:10;;;;;;;4.07;2.10;;;12.80;78.60;;;;;;5017662;28;20013;-84
2024/04/01 00:18:35;;;;;;;2.88;1.75;;;12.60;78.30;;;;;;5018970;28;20045;-84
2024/04/01 00:21:01;;;;;;;4.15;1.10;;;12.60;78.30;;;;;;5019865;28;20060;-85
2024/04/01 00:23:26;;;;;;;6.90;1.48;;;12.70;78.30;;;;;;5019062;28;20064;-85
2024/04/01 00:25:52;;;;;;;1.67;1.35;;;12.60;79.10;;;;;;5020457;28;20021;-83
2024/04/01 00:28:18;;;;;;;1.20;1.02;;;12.50;79.00;;;;;;5019440;28;20034;-86
2024/04/01 00:30:43;;;;;;;7.63;1.27;;;12.60;80.50;;;;;;5018442;28;20029;-84
2024/04/01 00:33:09;;;;;;;2.50;1.17;;;12.50;78.50;;;;;;5018801;28;20025;-84
2024/04/01 00:35:42;;;;;;;3.42;1.40;;;12.60;77.80;;;;;;5019614;28;20026;-85
2024/04/01 00:38:08;;;;;;;3.03;0.93;;;12.70;77.80;;;;;;5019128;28;20026;-85
2024/04/01 00:40:36;;;;;;;4.28;1.65;;;12.60;79.60;;;;;;5019748;28;20083;-83
2024/04/01 00:43:09;;;;;;;2.58;0.95;;;12.50;79.60;;;;;;5022506;28;20404;-84
2024/04/01 00:45:43;;;;;;;6.13;0.90;;;12.40;80.50;;;;;;5017411;28;20083;-84
2024/04/01 00:48:11;;;;;;;6.80;1.10;;;12.30;81.10;;;;;;5023050;28;20033;-84
2024/04/01 00:50:38;;;;;;;1.92;0.93;;;12.30;81.00;;;;;;5021542;28;20026;-85
2024/04/01 00:53:06;;;;;;;1.70;0.85;;;12.30;78.30;;;;;;5020364;28;20637;-85
2024/04/01 00:55:34;;;;;;;1.75;0.90;;;12.30;77.90;;;;;;5023981;28;20025;-84
2024/04/01 00:58:01;;;;;;;6.95;1.30;;;12.40;80.10;;;;;;5025513;28;20021;-83
2024/04/01 01:00:27;;;;;;;4.95;1.02;;;12.30;80.30;;;;;;5022801;28;20033;-85
2024/04/01 01:02:53;;;;;;;1.67;1.27;;;12.40;79.60;;;;;;5023502;28;20055;-83
2024/04/01 01:05:20;;;;;;;4.07;0.80;;;12.30;78.30;;;;;;5025287;28;20029;-86
2024/04/01 01:07:45;;;;;;;1.05;0.80;;;12.20;79.50;;;;;;5018647;28;20022;-86
2024/04/01 01:10:11;;;;;;;4.05;1.35;;;12.10;79.70;;;;;;5010009;28;20040;-84
2024/04/01 01:12:38;;;;;;;6.03;1.30;;;12.20;80.30;;;;;;5011955;28;20036;-84
2024/04/01 01:15:05;;;;;;;1.77;1.00;;;12.30;80.50;;;;;;5009850;28;20033;-85
2024/04/01 01:17:31;;;;;;;4.20;1.20;;;12.30;81.20;;;;;;5010754;28;20045;-84
2024/04/01 01:19:57;;;;;;;1.58;0.82;;;12.30;81.70;;;;;;5011618;28;20422;-82
2024/04/01 01:22:35;;;;;;;3.58;1.08;;;12.20;81.40;;;;;;5011790;28;20108;-83
2024/04/01 01:25:01;;;;;;;3.33;1.02;;;12.30;82.00;;;;;;5007751;28;20053;-84
2024/04/01 01:27:27;;;;;;;2.63;1.20;;;12.10;81.30;;;;;;5011404;28;20501;-86
2024/04/01 01:29:53;;;;;;;4.97;1.63;;;12.10;82.70;;;;;;5011288;28;20056;-83
2024/04/01 01:32:19;;;;;;;7.05;1.38;;;12.30;84.20;;;;;;5010772;28;20026;-84
2024/04/01 01:34:46;;;;;;;5.82;1.17;;;12.20;85.30;;;;;;5009840;28;20033;-86
2024/04/01 01:37:11;;;;;;;5.40;1.38;;;12.20;86.30;;;;;;5010726;28;20112;-83
2024/04/01 01:39:37;;;;;;;13.43;1.40;;;12.30;87.00;;;;;;5011353;28;20112;-84
2024/04/01 01:42:03;;;;;;;4.95;1.15;;;12.20;87.80;;;;;;5010073;28;20034;-85
2024/04/01 01:44:29;;;;;;;6.43;1.63;;;12.10;88.40;;;;;;5010676;28;20092;-84
2024/04/01 01:46:54;;;;;;;6.22;1.20;;;12.00;88.70;;;;;;5011029;28;20026;-84
2024/04/01 01:49:20;;;;;;;8.98;1.33;;;12.00;89.10;;;;;;5011203;28;20447;-84
2024/04/01 01:51:47;;;;;;;14.18;2.20;;;12.30;88.50;;;;;;5012433;28;20010;-84
2024/04/01 01:54:12;;;;;;;7.15;1.90;;;12.20;89.30;;;;;;5012110;28;20080;-84
2024/04/01 01:56:38;;;;;;;12.60;2.10;;;12.00;89.80;;;;;;5011150;28;20022;-84
2024/04/01 01:59:03;;;;;;;9.60;1.75;;;12.00;90.60;;;;;;5010688;28;20073;-84
2024/04/01 02:01:29;;;;;;;6.15;1.02;;;12.20;90.70;;;;;;5012460;28;20025;-84
2024/04/01 02:03:54;;;;;;;8.18;1.38;;;12.10;90.70;;;;;;5006714;28;20031;-84
2024/04/01 02:06:20;;;;;;;4.32;1.67;;;12.00;91.10;;;;;;5010713;28;20546;-84
2024/04/01 02:08:45;;;;;;;5.88;1.70;;;12.00;91.50;;;;;;5010665;28;20538;-84
2024/04/01 02:11:12;;;;;;;15.07;1.88;;;12.00;91.80;;;;;;5010856;28;20496;-83
2024/04/01 02:13:40;;;;;;;9.32;1.80;;;12.00;91.80;;;;;;5009380;28;20057;-83
2024/04/01 02:16:07;;;;;;;25.10;1.80;;;12.10;91.80;;;;;;5010905;28;20030;-86
2024/04/01 02:18:33;;;;;;;10.90;1.33;;;12.10;92.10;;;;;;5024100;28;20033;-86
2024/04/01 02:20:59;;;;;;;9.00;1.42;;;12.10;92.20;;;;;;5008592;28;20026;-84
2024/04/01 02:23:34;;;;;;;12.48;1.92;;;12.10;92.30;;;;;;5009146;28;20459;-84
2024/04/01 02:26:00;;;;;;;10.07;1.70;;;12.00;92.20;;;;;;5005791;28;20515;-84
2024/04/01 02:28:26;;;;;;;21.02;2.03;;;12.00;92.50;;;;;;5024312;28;20392;-83
2024/04/01 02:30:52;;;;;;;7.47;1.77;;;12.00;92.90;;;;;;5010752;28;20048;-84
2024/04/01 02:33:18;;;;;;;9.80;1.67;;;12.00;92.80;;;;;;5009630;28;20091;-84
2024/04/01 02:35:43;;;;;;;6.40;1.80;;;11.90;92.90;;;;;;5010272;28;20767;-84
2024/04/01 02:38:09;;;;;;;15.88;1.60;;;11.80;93.30;;;;;;5012341;28;20053;-83
2024/04/01 02:40:34;;;;;;;15.45;2.05;;;11.80;93.40;;;;;;5010979;28;20057;-85
2024/04/01 02:43:00;;;;;;;20.48;1.98;;;11.80;93.70;;;;;;5005131;28;20030;-84
2024/04/01 02:45:32;;;;;;;7.90;1.67;;;11.80;93.70;;;;;;5009398;28;20029;-85
2024/04/01 02:47:57;;;;;;;10.07;1.63;;;11.90;94.20;;;;;;5023534;28;20034;-85
2024/04/01 02:50:23;;;;;;;12.43;1.63;;;11.80;94.10;;;;;;5008394;28;20113;-85
2024/04/01 02:52:49;;;;;;;7.05;1.55;;;11.80;94.00;;;;;;5008585;28;20030;-83
2024/04/01 02:55:16;;;;;;;6.22;1.90;;;11.80;94.00;;;;;;5009224;28;20076;-83
2024/04/01 02:57:43;;;;;;;7.82;1.75;;;11.70;93.90;;;;;;5009758;28;20036;-83
2024/04/01 03:00:16;;;;;;;14.57;2.88;;;11.70;94.40;;;;;;5008759;28;20033;-84
2024/04/01 03:02:45;;;;;;;9.88;1.50;;;11.60;94.70;;;;;;5009475;28;20087;-84
2024/04/01 03:05:12;;;;;;;10.70;1.90;;;11.70;94.80;;;;;;5007354;28;20025;-84
2024/04/01 03:07:38;;;;;;;6.60;2.17;;;11.70;94.50;;;;;;5008872;28;20080;-86
2024/04/01 03:10:04;;;;;;;20.65;1.88;;;11.60;94.80;;;;;;5009666;28;20057;-83
2024/04/01 03:12:29;;;;;;;12.15;1.98;;;11.70;95.40;;;;;;5010861;28;20049;-85
2024/04/01 03:14:55;;;;;;;5.88;2.47;;;11.80;94.60;;;;;;5008794;28;20026;-84
2024/04/01 03:17:29;;;;;;;9.75;2.30;;;11.90;94.20;;;;;;5009294;28;20153;-83
2024/04/01 03:19:55;;;;;;;19.25;1.70;;;11.70;94.40;;;;;;5009300;28;20025;-84
2024/04/01 03:22:21;;;;;;;6.13;1.58;;;11.70;94.80;;;;;;5009173;28;20496;-83
2024/04/01 03:24:47;;;;;;;11.70;1.60;;;11.80;94.80;;;;;;5010535;28;20058;-83
2024/04/01 03:27:12;;;;;;;4.50;1.30;;;11.80;94.90;;;;;;5008976;28;20065;-86
2024/04/01 03:29:38;;;;;;;10.00;1.90;;;11.90;94.60;;;;;;5009146;28;20057;-85
2024/04/01 03:32:03;;;;;;;7.28;1.50;;;11.90;94.50;;;;;;5009728;28;20105;-85
2024/04/01 03:34:30;;;;;;;7.32;2.15;;;11.90;94.60;;;;;;5008963;28;20033;-86
2024/04/01 03:36:57;;;;;;;11.10;1.60;;;11.50;94.50;;;;;;5008744;28;20514;-83
2024/04/01 03:39:23;;;;;;;12.23;1.70;;;11.70;94.10;;;;;;5008344;28;20586;-84
2024/04/01 03:41:48;;;;;;;8.15;1.65;;;11.90;94.20;;;;;;5010481;28;20026;-85
2024/04/01 03:44:14;;;;;;;14.85;2.17;;;12.00;94.20;;;;;;5008754;28;20030;-82
2024/04/01 03:46:40;;;;;;;12.60;2.58;;;12.00;94.60;;;;;;5008763;28;20037;-84
2024/04/01 03:49:06;;;;;;;8.95;1.50;;;11.80;93.90;;;;;;5010347;28;20391;-86
2024/04/01 03:51:31;;;;;;;5.53;1.77;;;11.70;92.90;;;;;;5008937;28;20022;-83
2024/04/01 03:53:57;;;;;;;12.10;1.98;;;11.70;93.60;;;;;;5008368;28;20022;-84
2024/04/01 03:56:22;;;;;;;13.18;2.08;;;11.80;94.20;;;;;;5010311;28;20037;-84
2024/04/01 03:58:48;;;;;;;4.32;2.00;;;11.90;94.10;;;;;;5008295;28;20022;-85
2024/04/01 04:01:13;;;;;;;12.13;1.88;;;12.00;93.30;;;;;;5008770;28;20025;-84
2024/04/01 04:03:42;;;;;;;5.80;1.45;;;12.10;93.90;;;;;;5009893;28;20018;-83
2024/04/01 04:06:11;;;;;;;16.23;1.73;;;12.10;93.90;;;;;;5007934;28;20369;-84
2024/04/01 04:08:37;;;;;;;7.25;1.33;;;12.00;94.10;;;;;;5007856;28;20049;-83
2024/04/01 04:11:07;;;;;;;10.20;2.03;;;11.90;93.70;;;;;;5010364;28;20033;-85
2024/04/01 04:13:35;;;;;;;9.38;2.00;;;11.90;93.70;;;;;;5008396;28;20022;-83
2024/04/01 04:16:02;;;;;;;7.30;2.22;;;11.90;94.50;;;;;;5009548;28;20029;-83
2024/04/01 04:18:28;;;;;;;11.98;1.90;;;12.00;93.90;;;;;;5005805;28;20026;-83
2024/04/01 04:20:54;;;;;;;6.85;1.52;;;12.00;94.20;;;;;;5023972;28;20064;-83
2024/04/01 04:23:21;;;;;;;5.47;1.83;;;11.90;93.90;;;;;;5008300;28;20556;-84
2024/04/01 04:25:47;;;;;;;9.38;1.17;;;11.90;93.10;;;;;;5008811;28;20026;-84
2024/04/01 04:28:12;;;;;;;8.07;1.67;;;12.00;93.40;;;;;;5008034;28;20487;-84
2024/04/01 04:30:38;;;;;;;6.32;1.70;;;11.80;94.40;;;;;;5007877;28;20026;-82
2024/04/01 04:33:03;;;;;;;10.10;1.65;;;12.00;94.20;;;;;;5024791;28;20467;-83
2024/04/01 04:35:29;;;;;;;12.55;1.73;;;12.10;94.00;;;;;;5009400;28;20028;-84
2024/04/01 04:37:54;;;;;;;3.63;1.33;;;11.90;93.80;;;;;;5011269;28;20030;-85
2024/04/01 04:40:20;;;;;;;6.65;1.77;;;11.80;94.50;;;;;;5002250;28;20029;-84
2024/04/01 04:42:46;;;;;;;4.57;1.50;;;11.70;94.80;;;;;;5008315;28;20029;-85
2024/04/01 04:45:11;;;;;;;6.45;1.70;;;11.80;95.00;;;;;;5008096;28;20018;-84
2024/04/01 04:47:37;;;;;;;11.05;2.22;;;11.80;94.30;;;;;;5008383;28;20038;-84
2024/04/01 04:50:03;;;;;;;4.13;1.42;;;11.80;94.90;;;;;;5008115;28;20040;-83
2024/04/01 04:52:28;;;;;;;13.10;1.85;;;12.00;94.90;;;;;;5008419;28;20026;-84
2024/04/01 04:54:54;;;;;;;5.63;1.50;;;12.00;94.70;;;;;;5007725;28;20022;-85
2024/04/01 04:57:20;;;;;;;5.53;1.50;;;11.90;94.50;;;;;;5007568;28;20374;-83
2024/04/01 04:59:46;;;;;;;6.18;1.73;;;11.90;94.70;;;;;;5007988;28;20022;-85
2024/04/01 05:02:12;;;;;;;6.07;1.48;;;11.80;95.30;;;;;;5008297;28;20022;-85
2024/04/01 05:04:38;;;;;;;9.40;1.35;;;11.70;94.60;;;;;;5005353;28;20064;-85
2024/04/01 05:07:03;;;;;;;6.20;1.60;;;11.90;95.00;;;;;;5008039;28;20030;-84
2024/04/01 05:09:30;;;;;;;6.60;1.55;;;11.90;95.00;;;;;;5009515;28;20488;-84
2024/04/01 05:11:56;;;;;;;10.07;1.92;;;12.00;94.70;;;;;;5009030;28;20442;-84
2024/04/01 05:14:22;;;;;;;9.75;2.10;;;11.90;94.20;;;;;;5009388;28;20018;-82
2024/04/01 05:16:48;;;;;;;8.88;1.77;;;11.90;94.60;;;;;;5007857;28;20395;-86
2024/04/01 05:19:14;;;;;;;7.53;1.77;;;11.90;95.00;;;;;;5008955;28;20026;-85
2024/04/01 05:21:40;;;;;;;4.80;1.67;;;11.80;95.00;;;;;;5010633;28;20451;-83
2024/04/01 05:24:05;;;;;;;8.30;1.25;;;11.70;95.30;;;;;;5011457;28;20032;-84
2024/04/01 05:26:31;;;;;;;11.30;1.65;;;11.80;95.00;;;;;;5016869;28;20041;-86
2024/04/01 05:28:58;;;;;;;11.68;1.85;;;11.90;95.20;;;;;;5017475;28;20511;-85
2024/04/01 05:31:24;;;;;;;5.90;1.58;;;11.80;95.50;;;;;;5013244;28;20045;-85
2024/04/01 05:33:51;;;;;;;5.93;1.58;;;11.80;95.80;;;;;;5013163;28;20052;-85
2024/04/01 05:36:17;;;;;;;5.10;1.38;;;11.80;95.90;;;;;;5007534;28;20494;-85
2024/04/01 05:38:43;;;;;;;13.07;1.88;;;12.00;95.70;;;;;;5011386;28;20143;-85
2024/04/01 05:41:08;;;;;;;8.00;1.33;;;12.10;95.60;;;;;;5011081;28;20026;-84
2024/04/01 05:43:34;;;;;;;7.88;2.13;;;12.00;96.20;;;;;;5012625;28;20061;-83
2024/04/01 05:45:59;;;;;;;9.95;2.17;;;12.00;96.90;;;;;;5025619;28;20048;-84
2024/04/01 05:48:25;;;;;;;12.95;1.85;;;12.10;97.00;;;;;;5011323;28;20018;-83
2024/04/01 05:50:51;;;;;;;12.20;2.03;;;12.00;97.10;;;;;;5009756;28;20121;-85
2024/04/01 05:53:17;;;;;;;12.35;2.05;;;12.10;97.40;;;;;;5011100;28;20501;-83
2024/04/01 05:55:43;;;;;;;6.80;2.10;;;11.90;97.60;;;;;;5011824;28;20030;-85
2024/04/01 05:58:09;;;;;;;9.52;1.75;;;11.70;98.90;;;;;;5014828;28;20103;-85
2024/04/01 06:00:35;;;;;;;13.45;1.83;;;11.80;99.60;;;;;;5011200;28;20535;-85
2024/04/01 06:03:01;;;;;;;10.65;1.77;;;11.70;99.90;;;;;;5009520;28;20138;-83
2024/04/01 06:05:29;;;;;;;10.35;1.90;;;11.70;99.90;;;;;;5011355;28;20021;-85
2024/04/01 06:07:55;;;;;;;12.18;2.25;;;11.70;99.90;;;;;;5010715;28;20168;-84
2024/04/01 06:10:21;;;;;;;12.60;2.40;;;11.90;99.90;;;;;;5011386;28;20029;-83
2024/04/01 06:12:46;;;;;;;12.07;2.35;;;11.80;99.90;;;;;;5012123;28;20080;-84
2024/04/01 06:15:12;;;;;;;8.50;1.65;;;12.00;99.90;;;;;;5011916;28;20050;-83
2024/04/01 06:17:39;;;;;;;11.85;1.67;;;12.00;99.90;;;;;;5007896;28;20022;-85
2024/04/01 06:20:06;;;;;;;13.15;1.65;;;12.00;99.90;;;;;;5009434;28;20419;-84
2024/04/01 06:22:32;;;;;;;12.80;1.73;;;12.00;99.80;;;;;;5009997;28;20045;-83
2024/04/01 06:24:57;;;;;;;9.30;1.83;;;12.10;99.80;;;;;;5010646;28;20598;-87
2024/04/01 06:27:23;;;;;;;11.52;2.05;;;12.00;99.90;;;;;;5006577;28;20484;-84
2024/04/01 06:29:49;;;;;;;5.03;1.45;;;12.00;99.80;;;;;;5009225;28;20034;-83
2024/04/01 06:32:14;;;;;;;3.42;1.05;;;12.00;98.60;;;;;;5004234;28;20014;-84
2024/04/01 06:34:40;;;;;;;8.68;1.40;;;12.00;98.40;;;;;;5010433;28;20554;-86
2024/04/01 06:37:05;;;;;;;4.63;1.40;;;11.90;99.10;;;;;;5011857;28;20045;-84
2024/04/01 06:39:31;;;;;;;7.15;2.05;;;11.90;99.40;;;;;;5008889;28;20026;-83
2024/04/01 06:41:56;;;;;;;5.28;1.80;;;11.80;99.90;;;;;;5010030;28;20026;-84
2024/04/01 06:44:22;;;;;;;16.50;1.52;;;11.90;99.90;;;;;;5009476;28;20018;-84
2024/04/01 06:46:51;;;;;;;8.57;1.20;;;12.00;99.90;;;;;;5009644;28;20084;-87
2024/04/01 06:49:16;;;;;;;3.45;1.60;;;11.90;99.90;;;;;;5008955;28;20063;-85
2024/04/01 06:51:42;;;;;;;10.25;1.55;;;11.90;99.90;;;;;;5011314;28;20030;-84
2024/04/01 06:54:08;;;;;;;7.05;1.90;;;11.90;99.90;;;;;;5009529;28;20062;-84
2024/04/01 06:56:33;;;;;;;7.50;1.92;;;11.80;99.90;;;;;;5009476;28;20014;-84
2024/04/01 06:58:59;;;;;;;3.88;1.73;;;11.80;99.90;;;;;;5009379;28;20104;-84
2024/04/01 07:01:24;;;;;;;3.53;1.90;;;11.70;99.90;;;;;;5009446;28;20568;-85
2024/04/01 07:03:51;;;;;;;12.23;1.83;;;11.80;99.90;;;;;;5009514;28;20518;-85
2024/04/01 07:06:18;;;;;;;5.57;2.30;;;11.70;99.90;;;;;;5009556;28;20033;-84
2024/04/01 07:08:43;;;;;;;6.78;1.70;;;11.80;99.90;;;;;;5008627;28;20096;-84
2024/04/01 07:11:09;;;;;;;4.88;1.80;;;11.70;99.90;;;;;;5008721;28;20421;-84
2024/04/01 07:13:34;;;;;;;7.20;1.58;;;11.60;99.90;;;;;;5009817;28;20041;-85
2024/04/01 07:16:00;;;;;;;6.50;1.83;;;11.60;99.90;;;;;;5009007;28;20018;-84
2024/04/01 07:18:28;;;;;;;2.35;1.35;;;11.70;99.90;;;;;;5010337;28;20026;-85
2024/04/01 07:20:54;;;;;;;6.15;1.35;;;11.70;99.90;;;;;;5009540;28;20030;-83
2024/04/01 07:23:19;;;;;;;2.60;1.30;;;11.80;99.90;;;;;;5009377;28;20044;-85
2024/04/01 07:25:46;;;;;;;2.20;1.13;;;11.70;99.90;;;;;;5008422;28;20068;-85
2024/04/01 07:28:11;;;;;;;4.38;1.17;;;11.70;99.90;;;;;;5009016;28;20103;-84
2024/04/01 07:30:37;;;;;;;4.68;1.20;;;11.60;99.90;;;;;;5010145;28;20065;-85
2024/04/01 07:33:03;;;;;;;1.48;0.70;;;11.60;99.90;;;;;;5008554;28;20081;-84
2024/04/01 07:35:29;;;;;;;7.60;1.00;;;11.70;99.90;;;;;;5004130;28;20072;-86
2024/04/01 07:37:54;;;;;;;7.03;0.90;;;11.70;99.90;;;;;;5011176;28;20026;-85
2024/04/01 07:40:20;;;;;;;1.27;0.75;;;11.60;99.90;;;;;;5006286;28;20029;-84
2024/04/01 07:42:46;;;;;;;4.22;0.98;;;11.50;99.90;;;;;;5007773;28;20022;-84
2024/04/01 07:45:12;;;;;;;6.80;1.30;;;11.40;99.90;;;;;;5010223;28;20029;-84
2024/04/01 07:47:38;;;;;;;2.53;1.35;;;11.40;99.90;;;;;;5009198;28;20065;-85
2024/04/01 07:50:05;;;;;;;6.60;1.42;;;11.30;99.90;;;;;;5008149;28;20523;-84
2024/04/01 07:52:30;;;;;;;2.25;1.10;;;11.10;99.90;;;;;;5005254;28;20559;-84
2024/04/01 07:54:57;;;;;;;3.35;1.15;;;11.10;99.90;;;;;;5010454;28;20025;-84
2024/04/01 07:57:28;;;;;;;2.90;1.20;;;11.20;99.90;;;;;;5005295;28;20022;-84
2024/04/01 07:59:54;;;;;;;4.18;1.10;;;11.30;99.90;;;;;;5010364;28;20037;-86
2024/04/01 08:02:19;;;;;;;5.18;1.48;;;11.20;99.90;;;;;;5009000;28;20026;-84
2024/04/01 08:04:45;;;;;;;5.78;1.00;;;11.20;99.90;;;;;;5003742;28;20040;-85
2024/04/01 08:07:10;;;;;;;1.60;0.82;;;11.10;99.90;;;;;;5009805;28;20025;-85
2024/04/01 08:09:36;;;;;;;2.60;0.82;;;11.00;99.90;;;;;;5009789;28;20030;-86
2024/04/01 08:12:01;;;;;;;3.17;0.70;;;11.10;99.90;;;;;;5006530;28;20068;-84
2024/04/01 08:14:27;;;;;;;0.57;0.57;;;10.90;99.90;;;;;;5000567;28;20682;-86
2024/04/01 08:16:52;;;;;;;0.40;0.40;;;10.80;99.90;;;;;;5009071;28;20033;-85
2024/04/01 08:19:18;;;;;;;3.60;0.68;;;10.80;99.90;;;;;;5008545;28;20064;-86
2024/04/01 08:21:43;;;;;;;2.00;0.52;;;10.80;99.90;;;;;;5008647;28;20033;-86
2024/04/01 08:24:09;;;;;;;0.50;0.50;;;10.70;99.90;;;;;;5008701;28;20033;-85
2024/04/01 08:26:35;;;;;;;0.63;0.60;;;10.90;99.90;;;;;;5008835;28;20152;-86
2024/04/01 08:29:00;;;;;;;1.40;0.55;;;10.90;99.90;;;;;;5008354;28;20034;-84
2024/04/01 08:31:26;;;;;;;1.80;0.65;;;11.00;99.90;;;;;;5009856;28;20028;-86
2024/04/01 08:33:51;;;;;;;1.00;0.88;;;10.90;99.90;;;;;;5008212;28;20762;-85
2024/04/01 08:36:17;;;;;;;0.45;0.45;;;10.80;99.90;;;;;;5008424;28;20022;-85
2024/04/01 08:38:43;;;;;;;2.15;0.50;;;11.00;99.90;;;;;;5009734;28;20040;-85
2024/04/01 08:41:12;;;;;;;1.23;0.70;;;11.00;99.90;;;;;;5007323;28;20033;-86
2024/04/01 08:43:47;;;;;;;0.95;0.43;;;10.90;99.90;;;;;;5008264;28;20431;-85
2024/04/01 08:46:14;;;;;;;0.68;0.68;;;10.80;99.90;;;;;;5006705;28;20034;-86
2024/04/01 08:48:46;;;;;;;7.53;0.60;;;10.90;99.90;;;;;;5009182;28;20029;-86
2024/04/01 08:51:16;;;;;;;0.47;0.47;;;10.90;99.90;;;;;;5008343;28;20068;-86
2024/04/01 08:54:01;;;;;;;1.48;0.50;;;10.80;99.90;;;;;;5006653;28;20022;-85
2024/04/01 08:56:28;;;;;;;0.35;0.30;;;11.00;99.90;;;;;;5011804;28;20022;-85
2024/04/01 08:58:55;;;;;;;0.85;0.38;;;11.00;99.90;;;;;;5011646;28;20022;-85
2024/04/01 09:01:21;;;;;;;0.50;0.50;;;11.20;99.90;;;;;;5010381;28;20030;-86
2024/04/01 09:03:48;;;;;;;0.80;0.55;;;11.20;99.90;;;;;;5012099;28;20014;-85
2024/04/01 09:06:18;;;;;;;0.52;0.52;;;11.20;99.90;;;;;;5011766;28;20026;-85
2024/04/01 09:08:45;;;;;;;0.63;0.60;;;11.10;99.90;;;;;;5010837;28;20338;-86
2024/04/01 09:11:11;;;;;;;0.98;0.70;;;11.00;99.90;;;;;;5011438;28;20033;-84
2024/04/01 09:13:37;;;;;;;0.40;0.40;;;10.90;99.90;;;;;;5010373;28;20018;-86
2024/04/01 09:16:03;;;;;;;0.50;0.50;;;10.90;99.90;;;;;;5012056;28;20044;-86
2024/04/01 09:18:36;;;;;;;0.60;0.57;;;10.90;99.90;;;;;;5011496;28;20026;-86
2024/04/01 09:21:05;;;;;;;0.70;0.70;;;11.00;99.90;;;;;;5006868;28;20049;-85
2024/04/01 09:23:32;;;;;;;0.52;0.52;;;11.10;99.90;;;;;;5009903;28;20030;-86
2024/04/01 09:26:01;;;;;;;0.60;0.60;;;11.00;99.90;;;;;;5011652;28;20507;-87
2024/04/01 09:28:27;;;;;;;0.98;0.63;;;10.90;99.90;;;;;;5010295;28;20554;-86
2024/04/01 09:30:54;;;;;;;1.50;0.70;;;11.10;99.90;;;;;;5009596;28;20026;-87
2024/04/01 09:33:19;;;;;;;0.40;0.40;;;11.20;99.90;;;;;;5012894;28;20030;-88
2024/04/01 09:35:48;;;;;;;0.98;0.50;;;11.20;99.90;;;;;;5011957;28;20018;-86
2024/04/01 09:38:13;;;;;;;0.40;0.40;;;11.10;99.90;;;;;;5011290;28;20085;-86
2024/04/01 09:40:39;;;;;;;0.40;0.40;;;11.20;99.90;;;;;;5009005;28;20558;-87
2024/04/01 09:43:06;;;;;;;1.88;0.30;;;11.20;99.90;;;;;;5011322;28;20096;-85
2024/04/01 09:45:38;;;;;;;0.35;0.35;;;11.00;99.90;;;;;;5010464;28;20036;-86
2024/04/01 09:48:07;;;;;;;0.50;0.50;;;11.10;99.90;;;;;;5009443;28;20125;-86
2024/04/01 09:50:34;;;;;;;0.65;0.52;;;11.20;99.90;;;;;;5012037;28;20025;-86
2024/04/01 09:53:00;;;;;;;1.73;0.65;;;11.10;99.90;;;;;;5009831;28;20026;-86
2024/04/01 09:55:30;;;;;;;0.40;0.40;;;11.00;99.90;;;;;;5013788;28;20100;-86
2024/04/01 09:58:20;;;;;;;0.30;0.30;;;10.90;99.90;;;;;;5010962;28;20042;-85
2024/04/01 10:01:13;;;;;;;0.40;0.40;;;11.10;99.90;;;;;;5010084;28;20018;-86
2024/04/01 10:04:16;;;;;;;2.55;0.47;;;11.10;99.90;;;;;;5002859;28;20488;-86
2024/04/01 10:07:13;;;;;;;0.63;0.40;;;11.10;99.90;;;;;;5006307;28;20029;-86
2024/04/01 10:10:01;;;;;;;0.40;0.40;;;11.00;99.90;;;;;;5012899;28;20025;-86
2024/04/01 10:12:39;;;;;;;0.40;0.40;;;11.20;99.90;;;;;;5011068;28;20048;-85
2024/04/01 10:15:46;;;;;;;0.50;0.50;;;11.20;99.90;;;;;;5003891;28;20033;-87
2024/04/01 10:19:10;;;;;;;0.30;0.30;;;11.60;99.90;;;;;;5010021;28;20022;-86
2024/04/01 10:22:15;;;;;;;0.45;0.40;;;11.90;99.90;;;;;;4976189;28;20031;-87
2024/04/01 10:25:14;;;;;;;0.40;0.40;;;12.50;99.90;;;;;;5008218;28;20029;-87
2024/04/01 10:28:05;;;;;;;0.97;0.60;;;12.30;99.90;;;;;;5007047;28;20018;-85
2024/04/01 10:30:49;;;;;;;0.47;0.47;;;12.20;99.90;;;;;;5009234;28;20288;-87
2024/04/01 10:34:13;;;;;;;0.40;0.40;;;12.70;99.90;;;;;;5025925;28;20021;-86
2024/04/01 10:37:05;;;;;;;0.32;0.32;;;12.70;99.90;;;;;;5007968;28;20112;-85
2024/04/01 10:39:51;;;;;;;0.50;0.50;;;12.20;99.90;;;;;;5009612;28;20073;-85
2024/04/01 10:42:52;;;;;;;2.95;0.47;;;11.90;99.90;;;;;;5010079;28;20022;-85
2024/04/01 10:45:35;;;;;;;4.32;0.40;;;12.00;99.90;;;;;;4998656;28;20038;-86
2024/04/01 10:48:17;;;;;;;0.63;0.38;;;11.90;99.90;;;;;;5005846;28;20030;-86
2024/04/01 10:50:55;;;;;;;0.30;0.30;;;12.10;99.90;;;;;;5005183;28;20026;-85
2024/04/01 10:53:59;;;;;;;0.35;0.35;;;12.30;99.90;;;;;;5014238;28;20404;-85
2024/04/01 10:56:50;;;;;;;0.60;0.60;;;12.30;99.90;;;;;;5005694;28;20089;-88
2024/04/01 10:59:36;;;;;;;0.50;0.50;;;12.10;99.90;;;;;;5022849;28;20488;-88
2024/04/01 11:02:43;;;;;;;0.30;0.30;;;12.40;99.90;;;;;;5026263;28;20077;-88
2024/04/01 11:05:30;;;;;;;0.30;0.30;;;12.50;99.90;;;;;;5011870;28;20022;-86
2024/04/01 11:08:39;;;;;;;0.40;0.40;;;12.30;99.90;;;;;;5027420;28;20026;-87
2024/04/01 11:11:26;;;;;;;4.90;0.60;;;12.20;99.90;;;;;;4989434;28;20041;-85
2024/04/01 11:13:53;;;;;;;38.60;3.50;;;13.80;99.90;;;;;;4988975;28;20046;-85
2024/04/01 11:16:22;;;;;;;5.90;0.63;;;14.30;99.90;;;;;;4969320;28;20070;-85
2024/04/01 11:19:11;;;;;;;0.50;0.50;;;14.60;99.90;;;;;;4989467;28;20116;-87
2024/04/01 11:21:49;;;;;;;0.40;0.40;;;13.20;97.80;;;;;;4964134;28;20030;-83
2024/04/01 11:24:35;;;;;;;0.30;0.30;;;12.40;99.40;;;;;;4982973;28;20026;-90
2024/04/01 11:27:45;;;;;;;0.35;0.35;;;12.30;99.90;;;;;;4986490;28;20548;-85
2024/04/01 11:30:21;;;;;;;0.80;0.40;;;12.00;99.80;;;;;;4970945;28;20041;-85
2024/04/01 11:33:03;;;;;;;0.75;0.50;;;11.80;99.90;;;;;;4985426;28;20076;-83
2024/04/01 11:35:44;;;;;;;15.07;0.60;;;11.90;99.90;;;;;;4988077;28;20489;-83
2024/04/01 11:38:26;;;;;;;0.40;0.40;;;11.90;99.60;;;;;;4986979;28;20049;-83
2024/04/01 11:40:54;;;;;;;3.78;0.43;;;11.90;99.90;;;;;;4986656;28;20026;-85
2024/04/01 11:43:25;;;;;;;0.47;0.47;;;11.90;99.40;;;;;;4987918;28;20424;-85
2024/04/01 11:45:52;;;;;;;0.38;0.38;;;12.00;98.80;;;;;;5002936;28;20048;-84
2024/04/01 11:48:19;;;;;;;0.38;0.30;;;11.90;98.30;;;;;;5003603;28;20026;-86
2024/04/01 11:50:53;;;;;;;0.30;0.30;;;12.00;97.50;;;;;;5007991;28;20029;-85
2024/04/01 11:53:21;;;;;;;0.40;0.40;;;11.90;97.60;;;;;;5010323;28;20033;-85
2024/04/01 11:56:00;;;;;;;0.30;0.30;;;12.00;97.70;;;;;;5010007;28;20017;-84
2024/04/01 11:58:27;;;;;;;0.30;0.30;;;11.90;97.10;;;;;;5007296;28;20026;-86
2024/04/01 12:00:58;;;;;;;0.30;0.30;;;12.00;97.00;;;;;;5006907;28;20163;-86
2024/04/01 12:03:37;;;;;;;0.30;0.30;;;12.10;97.40;;;;;;5007432;28;20030;-85
2024/04/01 12:06:05;;;;;;;9.18;0.43;;;12.20;97.70;;;;;;5008845;28;20061;-86
2024/04/01 12:08:31;;;;;;;0.35;0.35;;;12.10;96.30;;;;;;5006541;28;20042;-86
2024/04/01 12:10:58;;;;;;;0.30;0.30;;;11.90;96.50;;;;;;5009226;28;20018;-86
2024/04/01 12:13:26;;;;;;;0.22;0.22;;;11.80;96.50;;;;;;5004951;28;20399;-86
2024/04/01 12:15:58;;;;;;;0.40;0.40;;;11.70;96.50;;;;;;5008576;28;20133;-84
2024/04/01 12:18:24;;;;;;;0.40;0.40;;;11.70;96.70;;;;;;5002084;28;20023;-85
2024/04/01 12:20:54;;;;;;;0.32;0.30;;;11.60;95.90;;;;;;5008875;28;20072;-86
2024/04/01 12:23:25;;;;;;;0.73;0.40;;;11.70;96.40;;;;;;5008730;28;20030;-86
2024/04/01 12:25:51;;;;;;;0.40;0.40;;;11.70;95.20;;;;;;5020384;28;20080;-86
2024/04/01 12:28:18;;;;;;;0.40;0.40;;;11.80;95.60;;;;;;5007702;28;20022;-85
2024/04/01 12:30:51;;;;;;;0.35;0.30;;;11.90;95.30;;;;;;5012457;28;20500;-86
2024/04/01 12:33:19;;;;;;;0.30;0.30;;;11.70;93.40;;;;;;5011343;28;20018;-86
2024/04/01 12:35:45;;;;;;;0.57;0.32;;;11.60;94.20;;;;;;5008544;28;20452;-85
2024/04/01 12:38:13;;;;;;;0.40;0.40;;;11.60;93.10;;;;;;5007116;28;20057;-83
2024/04/01 12:40:46;;;;;;;0.38;0.38;;;11.60;92.90;;;;;;5011137;28;20026;-85
2024/04/01 12:43:14;;;;;;;0.30;0.30;;;11.60;92.90;;;;;;5011857;28;20109;-84
2024/04/01 12:45:44;;;;;;;0.40;0.40;;;11.80;92.90;;;;;;5011540;28;20017;-85
2024/04/01 12:48:13;;;;;;;0.40;0.40;;;11.90;92.80;;;;;;5011062;28;20030;-85
2024/04/01 12:50:43;;;;;;;0.35;0.35;;;11.80;91.60;;;;;;5009298;28;20026;-85
2024/04/01 12:53:17;;;;;;;0.43;0.43;;;11.90;91.80;;;;;;5010778;28;20030;-86
2024/04/01 12:55:52;;;;;;;0.40;0.40;;;12.00;92.10;;;;;;5013384;28;20068;-84
2024/04/01 12:58:37;;;;;;;0.65;0.40;;;11.90;90.70;;;;;;5009920;28;20488;-85